Archival Weather

Fukuoka

Fukuoka, Japan (RJFF)

Report from: Tuesday, August 16, 2022 9:12 PM JST
Current time: Sunday, November 27, 2022 4:57 PM JST

Current weather
Weather history
Weather forecast

Present weatherLight rain showers
Temperature26.0°C (78.8°F)
Dew point25.0°C (77.0°F)
Winds 7 kts (3.6 m/s, 8.1 mph) Vrb
Winds variableWinds variable from East-Southeast (110°) to South (170°)
Visibility6.2 mi. (10 km)
Clouds Few clouds 700 ft. (213 m)
Few clouds with cumulonimbus 3,000 ft. (914 m)
Scattered clouds 3,500 ft. (1,067 m)
Ceiling: Broken clouds 4,500 ft. (1,372 m)
Altimeter29.77 in.Hg (1008 mB)
Precip. events C 9:01 PM
Relative humidity94 %
Density altitude1,871 ft. (570 m)
Remarks Special weather observation
Cumulonimbus clouds observed east southeast moving northeast
Flight conditions Visual Meteorological Conditions
Raw dataSPJP31 KWBC 161223 SPECI RJFF 161212Z 14007KT 110V170 9999 -SHRA FEW007 FEW030CB SCT035 BKN045 26/25 Q1008 RMK 1ST007 1CB030 3CU035 5CU045 A2977 CB 15KM E-SE MOV NE
An error has occurred. This application may no longer respond until reloaded. Reload 🗙